CSL Laurentien — VCJW — position and weather

sailwx.info

Track history (hours):
 
Tides and Currents Weather Stations Pressure Air Temp Water Temp Dewpoint Dewpoint Depression Visibility Wind Speed Wind Dir Waves Ship Positions

CSL Laurentien

ex Louis R. Desmarais

Last reported at 2018-Jun-23 03:45 UTC. Time now 2018-Jun-24 05:10 UTC.
Position N 45°22' W 083°14'.

Length 225 m; draft 8.1 m.

Type: Cargo ship. MMSI: 316001637.

Date/timePositionNaut miles runAvg speedWind from/ knotsBaromVisibWave heightAir tempDewpointWater temp
2018-Jun-23 03:45N 45°22' W 083°14'311.8
2018-Jun-23 03:30N 45°24' W 083°17'711.7
2018-Jun-23 02:52N 45°30' W 083°23'411.8
2018-Jun-23 02:30N 45°34' W 083°27'711.8
2018-Jun-23 01:54N 45°39' W 083°34'1920.7
2018-Jun-23 01:00N 45°24' W 083°18'346 9.3 090 / 61014.010.8 23.0
2018-Jun-21 12:00N 47°00' W 091°18'15218.8 050 / 241017.010.8 14.0
2018-Jun-21 11:55N 46°60' W 091°40'1 2.1
2018-Jun-21 11:29N 47°01' W 091°40'0 0.0
2018-Jun-21 10:59N 47°01' W 091°40'0 0.0
2018-Jun-21 10:29N 47°01' W 091°40'0 0.0
2018-Jun-21 09:58N 47°01' W 091°40'0 0.0
2018-Jun-21 09:16N 47°01' W 091°40'0 0.0
2018-Jun-21 09:00N 47°01' W 091°40'0 0.0
2018-Jun-21 08:30N 47°01' W 091°40'0 0.0
2018-Jun-21 08:00N 47°01' W 091°40'0 0.0
2018-Jun-21 07:30N 47°01' W 091°40'0 0.0
2018-Jun-21 07:00N 47°01' W 091°40'0 0.0
2018-Jun-21 06:30N 47°01' W 091°40'0 0.0
2018-Jun-21 06:00N 47°01' W 091°40'0 0.0
2018-Jun-21 05:26N 47°01' W 091°40'0 0.0
2018-Jun-21 04:59N 47°01' W 091°40'0 0.0
2018-Jun-21 04:17N 47°01' W 091°40'0 0.0
2018-Jun-21 03:56N 47°01' W 091°40'0 0.0
2018-Jun-21 03:22N 47°01' W 091°40'0 0.0
2018-Jun-21 02:56N 47°01' W 091°40'0 0.0
2018-Jun-21 02:21N 47°01' W 091°40'0 0.0
2018-Jun-21 01:58N 47°01' W 091°40'0 0.0
2018-Jun-21 01:27N 47°01' W 091°40'0 0.0
2018-Jun-21 01:00N 47°01' W 091°40'0 0.0
2018-Jun-21 00:20N 47°01' W 091°40'0 0.0
2018-Jun-21 00:00N 47°01' W 091°40'0 0.0
2018-Jun-20 23:06N 47°01' W 091°40'0 0.0
2018-Jun-20 23:00N 47°01' W 091°40'0 0.0
2018-Jun-20 22:09N 47°01' W 091°40'0 0.0
2018-Jun-20 21:49N 47°01' W 091°40'0 0.0
2018-Jun-20 21:29N 47°01' W 091°40'0 0.0
2018-Jun-20 21:00N 47°01' W 091°40'0 0.0
2018-Jun-20 19:35N 47°01' W 091°40'0 0.0
2018-Jun-20 19:30N 47°01' W 091°40'0 0.0
2018-Jun-20 17:54N 47°01' W 091°40'0 0.0
2018-Jun-20 17:24N 47°01' W 091°40'0 0.0
2018-Jun-20 16:55N 47°01' W 091°40'0 0.4
2018-Jun-20 16:29N 47°01' W 091°40'1 2.2
2018-Jun-20 16:00N 46°60' W 091°41'1 1.2
2018-Jun-20 15:30N 46°60' W 091°42'0 0.6
2018-Jun-20 15:00N 46°59' W 091°41'0 0.8
2018-Jun-20 14:30N 46°59' W 091°41'0 0.1
2018-Jun-20 14:00N 46°59' W 091°41'0 0.3
2018-Jun-20 13:30N 46°59' W 091°41'0 0.0
2018-Jun-20 13:00N 46°59' W 091°41'0 0.2
2018-Jun-20 12:30N 46°59' W 091°41'0 0.1
2018-Jun-20 12:00N 46°59' W 091°41'0 0.1
2018-Jun-20 11:30N 46°59' W 091°41'0 0.2
2018-Jun-20 11:00N 46°59' W 091°41'0 0.1
2018-Jun-20 10:30N 46°59' W 091°41'0 0.2
2018-Jun-20 10:00N 46°59' W 091°41'0 0.1
2018-Jun-20 09:30N 46°59' W 091°41'0 0.1
2018-Jun-20 09:00N 46°59' W 091°41'0 0.0
2018-Jun-20 08:30N 46°59' W 091°41'0 0.1
2018-Jun-20 08:00N 46°59' W 091°41'0 0.1
2018-Jun-20 07:30N 46°59' W 091°41'0 0.0
2018-Jun-20 07:00N 46°59' W 091°41'0 0.0
2018-Jun-20 06:30N 46°59' W 091°41'0 0.1
2018-Jun-20 06:00N 46°59' W 091°41'0 0.3
2018-Jun-20 05:30N 46°59' W 091°41'0 0.1
2018-Jun-20 04:37N 46°59' W 091°41'0 0.1
2018-Jun-20 04:30N 46°59' W 091°41'0 0.1
2018-Jun-20 03:43N 46°59' W 091°41'3 6.1
2018-Jun-20 03:10N 46°56' W 091°44'211.7
2018-Jun-20 02:59N 46°55' W 091°46'612.1
2018-Jun-20 02:30N 46°51' W 091°53'612.2
2018-Jun-20 02:00N 46°48' W 092°01'4 8.1
2018-Jun-20 01:30N 46°46' W 092°06'2 3.4
2018-Jun-20 01:00N 46°45' W 092°07'1 1.1
2018-Jun-20 00:30N 46°44' W 092°07'0 0.2
2018-Jun-19 23:58N 46°44' W 092°07'0 0.0
2018-Jun-19 23:28N 46°44' W 092°07'0 0.0
2018-Jun-19 22:59N 46°44' W 092°07'0 0.0
2018-Jun-19 22:30N 46°44' W 092°07'0 0.0
2018-Jun-19 22:00N 46°44' W 092°07'0 0.0
2018-Jun-19 21:29N 46°44' W 092°07'0 0.0
2018-Jun-19 21:00N 46°44' W 092°07'0 0.0
2018-Jun-19 20:30N 46°44' W 092°07'0 0.0
2018-Jun-19 20:00N 46°44' W 092°07'0 0.0
2018-Jun-19 19:30N 46°44' W 092°07'0 0.0
2018-Jun-19 19:00N 46°44' W 092°07'0 0.0
2018-Jun-19 18:22N 46°44' W 092°07'0 0.0
2018-Jun-19 18:00N 46°44' W 092°07'0 0.0
2018-Jun-19 17:28N 46°44' W 092°07'0 0.0
2018-Jun-19 16:57N 46°44' W 092°07'0 0.0
2018-Jun-19 16:30N 46°44' W 092°07'0 0.0
2018-Jun-19 16:00N 46°44' W 092°07'0 0.0
2018-Jun-19 15:30N 46°44' W 092°07'0 0.1
2018-Jun-19 15:00N 46°44' W 092°07'0 0.6
2018-Jun-19 14:30N 46°45' W 092°07'0 0.2
2018-Jun-19 14:00N 46°45' W 092°07'1 2.4
2018-Jun-19 13:30N 46°45' W 092°06'2 3.2
2018-Jun-19 13:00N 46°47' W 092°06'4 7.6
2018-Jun-19 12:30N 46°48' W 092°01'611.7
2018-Jun-19 12:00N 46°50' W 091°52'611.8
2018-Jun-19 11:30N 46°52' W 091°45'611.7
2018-Jun-19 11:00N 46°55' W 091°37'611.9
2018-Jun-19 10:30N 46°57' W 091°29'611.9
2018-Jun-19 10:00N 46°59' W 091°20'611.8
2018-Jun-19 09:30N 47°01' W 091°12'811.8
2018-Jun-19 08:49N 47°04' W 091°01'411.7
2018-Jun-19 08:30N 47°06' W 090°56'611.7
2018-Jun-19 08:00N 47°08' W 090°48'18711.0
2018-Jun-18 15:00N 47°48' W 086°18'17110.2 190 / 261012.0 0.0 10.0
2018-Jun-17 22:15N 45°38' W 083°36'511.8
2018-Jun-17 21:51N 45°34' W 083°32'411.9
2018-Jun-17 21:30N 45°31' W 083°28'  
2018-Jun-15 14:00N 42°00' W 081°06'   1019.010.8 17.0
2018-Jun-13 08:27N 45°25' W 083°18'811.8
2018-Jun-13 07:46N 45°32' W 083°25'  
Track history (hours):
 
Tides and Currents Weather Stations Pressure Air Temp Water Temp Dewpoint Dewpoint Depression Visibility Wind Speed Wind Dir Waves Ship Positions

CSL Laurentien

ex Louis R. Desmarais

Last reported at 2018-Jun-23 03:45 UTC. Time now 2018-Jun-24 05:10 UTC.
Position N 45°22' W 083°14'.

Length 225 m; draft 8.1 m.

Type: Cargo ship. MMSI: 316001637.

Date/timePositionNaut miles runAvg speedWind from/ knotsBaromVisibWave heightAir tempDewpointWater temp
2018-Jun-23 03:45N 45°22' W 083°14'311.8
2018-Jun-23 03:30N 45°24' W 083°17'711.7
2018-Jun-23 02:52N 45°30' W 083°23'411.8
2018-Jun-23 02:30N 45°34' W 083°27'711.8
2018-Jun-23 01:54N 45°39' W 083°34'1920.7
2018-Jun-23 01:00N 45°24' W 083°18'346 9.3 090 / 61014.010.8 23.0
2018-Jun-21 12:00N 47°00' W 091°18'15218.8 050 / 241017.010.8 14.0
2018-Jun-21 11:55N 46°60' W 091°40'1 2.1
2018-Jun-21 11:29N 47°01' W 091°40'0 0.0
2018-Jun-21 10:59N 47°01' W 091°40'0 0.0
2018-Jun-21 10:29N 47°01' W 091°40'0 0.0
2018-Jun-21 09:58N 47°01' W 091°40'0 0.0
2018-Jun-21 09:16N 47°01' W 091°40'0 0.0
2018-Jun-21 09:00N 47°01' W 091°40'0 0.0
2018-Jun-21 08:30N 47°01' W 091°40'0 0.0
2018-Jun-21 08:00N 47°01' W 091°40'0 0.0
2018-Jun-21 07:30N 47°01' W 091°40'0 0.0
2018-Jun-21 07:00N 47°01' W 091°40'0 0.0
2018-Jun-21 06:30N 47°01' W 091°40'0 0.0
2018-Jun-21 06:00N 47°01' W 091°40'0 0.0
2018-Jun-21 05:26N 47°01' W 091°40'0 0.0
2018-Jun-21 04:59N 47°01' W 091°40'0 0.0
2018-Jun-21 04:17N 47°01' W 091°40'0 0.0
2018-Jun-21 03:56N 47°01' W 091°40'0 0.0
2018-Jun-21 03:22N 47°01' W 091°40'0 0.0
2018-Jun-21 02:56N 47°01' W 091°40'0 0.0
2018-Jun-21 02:21N 47°01' W 091°40'0 0.0
2018-Jun-21 01:58N 47°01' W 091°40'0 0.0
2018-Jun-21 01:27N 47°01' W 091°40'0 0.0
2018-Jun-21 01:00N 47°01' W 091°40'0 0.0
2018-Jun-21 00:20N 47°01' W 091°40'0 0.0
2018-Jun-21 00:00N 47°01' W 091°40'0 0.0
2018-Jun-20 23:06N 47°01' W 091°40'0 0.0
2018-Jun-20 23:00N 47°01' W 091°40'0 0.0
2018-Jun-20 22:09N 47°01' W 091°40'0 0.0
2018-Jun-20 21:49N 47°01' W 091°40'0 0.0
2018-Jun-20 21:29N 47°01' W 091°40'0 0.0
2018-Jun-20 21:00N 47°01' W 091°40'0 0.0
2018-Jun-20 19:35N 47°01' W 091°40'0 0.0
2018-Jun-20 19:30N 47°01' W 091°40'0 0.0
2018-Jun-20 17:54N 47°01' W 091°40'0 0.0
2018-Jun-20 17:24N 47°01' W 091°40'0 0.0
2018-Jun-20 16:55N 47°01' W 091°40'0 0.4
2018-Jun-20 16:29N 47°01' W 091°40'1 2.2
2018-Jun-20 16:00N 46°60' W 091°41'1 1.2
2018-Jun-20 15:30N 46°60' W 091°42'0 0.6
2018-Jun-20 15:00N 46°59' W 091°41'0 0.8
2018-Jun-20 14:30N 46°59' W 091°41'0 0.1
2018-Jun-20 14:00N 46°59' W 091°41'0 0.3
2018-Jun-20 13:30N 46°59' W 091°41'0 0.0
2018-Jun-20 13:00N 46°59' W 091°41'0 0.2
2018-Jun-20 12:30N 46°59' W 091°41'0 0.1
2018-Jun-20 12:00N 46°59' W 091°41'0 0.1
2018-Jun-20 11:30N 46°59' W 091°41'0 0.2
2018-Jun-20 11:00N 46°59' W 091°41'0 0.1
2018-Jun-20 10:30N 46°59' W 091°41'0 0.2
2018-Jun-20 10:00N 46°59' W 091°41'0 0.1
2018-Jun-20 09:30N 46°59' W 091°41'0 0.1
2018-Jun-20 09:00N 46°59' W 091°41'0 0.0
2018-Jun-20 08:30N 46°59' W 091°41'0 0.1
2018-Jun-20 08:00N 46°59' W 091°41'0 0.1
2018-Jun-20 07:30N 46°59' W 091°41'0 0.0
2018-Jun-20 07:00N 46°59' W 091°41'0 0.0
2018-Jun-20 06:30N 46°59' W 091°41'0 0.1
2018-Jun-20 06:00N 46°59' W 091°41'0 0.3
2018-Jun-20 05:30N 46°59' W 091°41'0 0.1
2018-Jun-20 04:37N 46°59' W 091°41'0 0.1
2018-Jun-20 04:30N 46°59' W 091°41'0 0.1
2018-Jun-20 03:43N 46°59' W 091°41'3 6.1
2018-Jun-20 03:10N 46°56' W 091°44'211.7
2018-Jun-20 02:59N 46°55' W 091°46'612.1
2018-Jun-20 02:30N 46°51' W 091°53'612.2
2018-Jun-20 02:00N 46°48' W 092°01'4 8.1
2018-Jun-20 01:30N 46°46' W 092°06'2 3.4
2018-Jun-20 01:00N 46°45' W 092°07'1 1.1
2018-Jun-20 00:30N 46°44' W 092°07'0 0.2
2018-Jun-19 23:58N 46°44' W 092°07'0 0.0
2018-Jun-19 23:28N 46°44' W 092°07'0 0.0
2018-Jun-19 22:59N 46°44' W 092°07'0 0.0
2018-Jun-19 22:30N 46°44' W 092°07'0 0.0
2018-Jun-19 22:00N 46°44' W 092°07'0 0.0
2018-Jun-19 21:29N 46°44' W 092°07'0 0.0
2018-Jun-19 21:00N 46°44' W 092°07'0 0.0
2018-Jun-19 20:30N 46°44' W 092°07'0 0.0
2018-Jun-19 20:00N 46°44' W 092°07'0 0.0
2018-Jun-19 19:30N 46°44' W 092°07'0 0.0
2018-Jun-19 19:00N 46°44' W 092°07'0 0.0
2018-Jun-19 18:22N 46°44' W 092°07'0 0.0
2018-Jun-19 18:00N 46°44' W 092°07'0 0.0
2018-Jun-19 17:28N 46°44' W 092°07'0 0.0
2018-Jun-19 16:57N 46°44' W 092°07'0 0.0
2018-Jun-19 16:30N 46°44' W 092°07'0 0.0
2018-Jun-19 16:00N 46°44' W 092°07'0 0.0
2018-Jun-19 15:30N 46°44' W 092°07'0 0.1
2018-Jun-19 15:00N 46°44' W 092°07'0 0.6
2018-Jun-19 14:30N 46°45' W 092°07'0 0.2
2018-Jun-19 14:00N 46°45' W 092°07'1 2.4
2018-Jun-19 13:30N 46°45' W 092°06'2 3.2
2018-Jun-19 13:00N 46°47' W 092°06'4 7.6
2018-Jun-19 12:30N 46°48' W 092°01'611.7
2018-Jun-19 12:00N 46°50' W 091°52'611.8
2018-Jun-19 11:30N 46°52' W 091°45'611.7
2018-Jun-19 11:00N 46°55' W 091°37'611.9
2018-Jun-19 10:30N 46°57' W 091°29'611.9
2018-Jun-19 10:00N 46°59' W 091°20'611.8
2018-Jun-19 09:30N 47°01' W 091°12'811.8
2018-Jun-19 08:49N 47°04' W 091°01'411.7
2018-Jun-19 08:30N 47°06' W 090°56'611.7
2018-Jun-19 08:00N 47°08' W 090°48'18711.0
2018-Jun-18 15:00N 47°48' W 086°18'17110.2 190 / 261012.0 0.0 10.0
2018-Jun-17 22:15N 45°38' W 083°36'511.8
2018-Jun-17 21:51N 45°34' W 083°32'411.9
2018-Jun-17 21:30N 45°31' W 083°28'  
2018-Jun-15 14:00N 42°00' W 081°06'   1019.010.8 17.0
2018-Jun-13 08:27N 45°25' W 083°18'811.8
2018-Jun-13 07:46N 45°32' W 083°25'  

Dump ship's entire track history